Главная страница
METAR-TAF:

METAR-TAF

Аэропорты :

Саратов-Центральный

Саратов, Россия

широта: 51-34-12N, долгота: 046-04-12E, высота над уровнем моря: 166 м

Текущие метеонаблюдения

Эта сводка был подготовлена 36 минут назад, в 01:00 UTC
Ветер 6 Узел от северо-западный
Температура 12°C
Влажность 94%
Давление 1024 hPa
Видимость 10 км и более
Нет облачности ниже 1500 м, и нет кучево-дождевой облачности

METAR: UWSS 160100Z 31003MPS CAVOK 12/11 Q1024 R30/010095 NOSIG RMK QFE755

Время: 04:36 (01:36 UTC)

Прогноз

Эта сводка был подготовлена 2 часа и 36 минут назад, в 23:00 UTC
Прогноз действительный с 16-го 00 UTC до 16-го 09 UTC
Ветер 6 Узел от северо-западный
Видимость: 3100 м
Отдельные облака на высоте 1100 фута
дымка
временами
С 16-го 00 UTC до 16-го 06 UTC
Видимость: 0600 м
на высоте 300 фута
туман

TAF: UWSS 152300Z 1600/1609 31003MPS 3100 BR SCT011 TEMPO 1600/1606 0600 FG VV003

Метеонаблюдения и прогнозы для более 4000 аэропортов (сводки METAR и TAF).

Имеющиеся станции представлены на карте желтыми и красными точками.

Чтобы увидеть название станции, наведите на нее мышь.

Затем щелкните, чтобы увидеть метеонаблюдения и метеопрогнозы.

Управление картой: чтобы увеличить масштаб, щелкните зеленые кнопки с черным крестиком; чтобы уменьшить масштаб, щелкните зеленую кнопку с тире; для просмотра соседних карт щелкайте зеленые стрелки.


METAR-TAF: